EW3811 Weather Reports


Display with metric or nautical units.
time (UTC)temp
F
wind
direction
speed
MPH
gust
MPH
rain 1hr
in
rain 24hr
in
rain mn
in
humidity
%
barometer
mb
20180716181534 83 64 1.0 5.0 0.00 0.00 0.00 46 1015.5
20180716180032 84 146 0.0 6.0 0.00 0.00 0.00 45 1015.7
20180716174532 82 291 3.0 11.0 0.00 0.00 0.00 48 1015.8
20180716173028 83 90 3.0 7.0 0.00 0.00 0.00 45 1015.8
20180716171527 83 142 0.0 6.0 0.00 0.00 0.00 48 1016.0
20180716170024 82 172 1.0 6.0 0.00 0.00 0.00 45 1016.0
20180716164521 82 136 2.0 6.0 0.00 0.00 0.00 47 1016.1
20180716163017 82 197 2.0 6.0 0.00 0.00 0.00 48 1016.2
20180716161513 81 221 3.0 6.0 0.00 0.00 0.00 49 1016.3
20180716160010 81 201 3.0 6.0 0.00 0.00 0.00 50 1016.4
20180716154509 81 181 1.0 4.0 0.00 0.00 0.00 52 1016.6
20180716153004 80 187 2.0 4.0 0.00 0.00 0.00 52 1016.6
20180716151503 79 213 2.0 6.0 0.00 0.00 0.00 53 1016.8
20180716150003 78 60 1.0 6.0 0.00 0.00 0.00 59 1016.8
20180716144458 79 203 1.0 6.0 0.00 0.00 0.00 54 1016.9
20180716142954 78 192 1.0 4.0 0.00 0.00 0.00 58 1016.9
20180716141450 77 131 0.0 2.0 0.00 0.00 0.00 60 1017.1
20180716135949 76 137 0.0 2.0 0.00 0.00 0.00 59 1017.2
20180716134450 76 151 0.0 3.0 0.00 0.00 0.00 59 1017.3
20180716132949 77 126 0.0 2.0 0.00 0.00 0.00 60 1017.3
20180716131443 76 150 0.0 2.0 0.00 0.00 0.00 60 1017.3
20180716125946 75 202 0.0 2.0 0.00 0.00 0.00 60 1017.4
20180716124440 74 123 0.0 2.0 0.00 0.00 0.00 60 1017.5
20180716122939 73 86 0.0 1.0 0.00 0.00 0.00 61 1017.4
20180716121437 73 131 0.0 1.0 0.00 0.00 0.00 67 1017.6
20180716115934 70 132 0.0 1.0 0.00 0.00 0.00 73 1017.6
20180716114430 68 139 0.0 0.0 0.00 0.00 0.00 78 1017.6
20180716112923 67 139 0.0 0.0 0.00 0.00 0.00 79 1017.7
20180716111418 64 316 0.0 0.0 0.00 0.00 0.00 84 1017.7
20180716105915 62 317 0.0 0.0 0.00 0.01 0.00 84 1017.7
20180716104414 60 294 0.0 0.0 0.00 0.01 0.00 87 1017.8
20180716102914 58 294 0.0 0.0 0.00 0.01 0.00 89 1017.6
20180716101410 57 291 0.0 0.0 0.00 0.01 0.00 89 1017.5
20180716095911 57 291 0.0 2.0 0.00 0.01 0.00 89 1017.6
20180716094411 57 302 1.0 2.0 0.00 0.01 0.00 90 1017.4
20180716092910 56 305 0.0 2.0 0.00 0.01 0.00 91 1017.3
20180716091408 57 309 1.0 3.0 0.00 0.01 0.00 89 1017.2
20180716085904 57 299 1.0 2.0 0.00 0.01 0.00 92 1017.2
20180716084406 57 288 0.0 2.0 0.00 0.01 0.00 91 1017.2
20180716082902 59 290 0.0 3.0 0.00 0.01 0.00 85 1017.1
20180716042835 61 350 0.0 1.0 0.00 0.01 0.00 86 1017.5
20180716041333 61 331 1.0 2.0 0.00 0.01 0.00 85 1017.5
20180716035831 61 328 0.0 1.0 0.00 0.01 0.01 84 1017.5
20180716034331 63 332 1.0 2.0 0.00 0.01 0.01 82 1017.3
20180716032832 63 341 1.0 2.0 0.00 0.01 0.01 81 1017.3
20180716031329 63 326 1.0 2.0 0.00 0.01 0.01 80 1017.3
20180716025829 64 291 2.0 4.0 0.00 0.01 0.01 78 1017.2
20180716024330 66 299 1.0 3.0 0.00 0.01 0.01 73 1017.2
20180716022829 66 312 2.0 4.0 0.00 0.01 0.01 74 1017.2
20180716021327 65 335 1.0 4.0 0.00 0.01 0.01 75 1017.0
20180716015830 65 15 2.0 4.0 0.00 0.01 0.01 76 1017.1
20180716014330 65 324 1.0 2.0 0.00 0.01 0.01 76 1016.9
20180716012829 66 324 1.0 3.0 0.00 0.01 0.01 73 1017.0
20180716011325 67 331 1.0 2.0 0.00 0.01 0.01 71 1016.9
20180716005827 68 335 1.0 4.0 0.00 0.01 0.01 71 1016.8
20180716004326 69 295 2.0 4.0 0.00 0.01 0.01 72 1016.6
20180716002824 68 323 1.0 2.0 0.00 0.01 0.01 84 1016.4
20180716001325 69 305 1.0 2.0 0.00 0.01 0.01 81 1016.2
20180715235824 70 307 0.0 0.0 0.00 0.01 0.01 87 1016.0
20180715234325 71 309 0.0 0.0 0.00 0.01 0.01 85 1015.9
20180715232821 72 307 0.0 0.0 0.00 0.01 0.01 83 1015.7
20180715231322 72 221 0.0 1.0 0.00 0.01 0.01 82 1015.6
20180715225825 74 201 0.0 0.0 0.00 0.01 0.01 79 1015.6
20180715224319 76 201 0.0 1.0 0.00 0.01 0.01 75 1015.4
20180715222821 76 239 0.0 1.0 0.00 0.01 0.01 75 1015.3
20180715221320 77 278 0.0 1.0 0.00 0.01 0.01 73 1015.2
20180715215817 77 254 0.0 3.0 0.00 0.02 0.01 72 1015.1
20180715214315 76 96 0.0 2.0 0.00 0.02 0.01 75 1015.2
20180715212818 76 238 0.0 3.0 0.00 0.02 0.01 75 1015.3
20180715211313 77 206 0.0 1.0 0.00 0.02 0.01 73 1015.4
20180715205817 77 248 1.0 4.0 0.00 0.04 0.01 73 1015.4
20180715204315 77 172 3.0 6.0 0.00 0.04 0.01 70 1015.4
20180715202812 77 194 0.0 4.0 0.00 0.04 0.01 73 1015.4
20180715201313 77 245 2.0 6.0 0.00 0.04 0.01 71 1015.6
20180715195813 77 243 0.0 7.0 0.00 0.04 0.01 73 1015.7
20180715194311 78 262 2.0 6.0 0.00 0.04 0.01 70 1015.7
20180715192809 78 198 1.0 4.0 0.00 0.04 0.01 68 1015.6
20180715191307 79 149 2.0 7.0 0.00 0.04 0.01 68 1015.6
20180715185805 79 160 1.0 8.0 0.00 0.04 0.01 70 1015.5
20180715184306 78 63 1.0 5.0 0.00 0.04 0.01 70 1015.5
20180715182802 77 179 1.0 4.0 0.00 0.04 0.01 72 1015.4